createdAt,value
2019-02-18T00:01:49.561Z,8.74
2019-02-18T00:04:35.649Z,8.62
2019-02-18T00:07:21.457Z,8.62
2019-02-18T00:10:07.836Z,8.35
2019-02-18T00:12:54.022Z,8.48
2019-02-18T00:15:40.037Z,8.40
2019-02-18T00:18:27.885Z,8.17
2019-02-18T00:21:13.684Z,8.56
2019-02-18T00:24:00.547Z,8.56
2019-02-18T00:26:47.219Z,8.29
2019-02-18T00:29:33.069Z,8.43
2019-02-18T00:32:19.369Z,8.60
2019-02-18T00:35:08.042Z,8.60
2019-02-18T00:37:54.215Z,8.73
2019-02-18T00:40:42.065Z,8.70
2019-02-18T00:43:28.545Z,8.44
2019-02-18T00:46:14.586Z,8.36
2019-02-18T00:49:03.425Z,8.47
2019-02-18T00:51:49.771Z,8.42
2019-02-18T00:54:36.017Z,8.42
2019-02-18T00:57:21.933Z,8.08
2019-02-18T01:00:12.120Z,8.23
2019-02-18T01:02:58.515Z,8.16
2019-02-18T01:05:44.516Z,8.09
2019-02-18T01:08:31.006Z,7.84
2019-02-18T01:11:17.340Z,7.75
2019-02-18T01:14:03.158Z,7.72
2019-02-18T01:16:49.274Z,7.66
2019-02-18T01:19:35.186Z,7.66
2019-02-18T01:22:21.081Z,7.41
2019-02-18T01:25:08.990Z,7.42
2019-02-18T01:27:55.018Z,7.26
2019-02-18T01:30:40.837Z,7.26
2019-02-18T01:33:27.521Z,7.29
2019-02-18T01:36:13.597Z,7.19
2019-02-18T01:38:59.530Z,7.05
2019-02-18T01:41:45.881Z,6.96
2019-02-18T01:44:31.827Z,6.99
2019-02-18T01:47:17.881Z,6.69
2019-02-18T01:50:05.568Z,6.69
2019-02-18T01:52:51.581Z,6.71
2019-02-18T01:55:37.810Z,7.17
2019-02-18T01:58:23.898Z,7.00
2019-02-18T02:01:09.978Z,6.96
2019-02-18T02:03:56.046Z,6.74
2019-02-18T02:06:42.200Z,6.67
2019-02-18T02:09:28.322Z,6.71
2019-02-18T02:12:14.430Z,6.69
2019-02-18T02:15:00.684Z,6.10
2019-02-18T02:17:47.123Z,6.10
2019-02-18T02:20:34.621Z,6.25
2019-02-18T02:23:20.962Z,6.21
2019-02-18T02:26:07.138Z,5.98
2019-02-18T02:28:52.926Z,6.04
2019-02-18T02:31:38.868Z,6.26
2019-02-18T02:34:24.943Z,6.38
2019-02-18T02:37:11.186Z,6.55
2019-02-18T02:39:57.451Z,6.39
2019-02-18T02:42:43.585Z,6.34
2019-02-18T02:45:29.923Z,6.40
2019-02-18T02:48:15.853Z,6.34
2019-02-18T02:51:01.898Z,6.83
2019-02-18T02:53:47.978Z,6.83
2019-02-18T02:56:34.164Z,7.05
2019-02-18T02:59:21.524Z,7.06
2019-02-18T03:02:07.990Z,6.85
2019-02-18T03:04:54.056Z,6.85
2019-02-18T03:07:39.795Z,6.81
2019-02-18T03:10:26.024Z,6.81
2019-02-18T03:13:12.105Z,6.77
2019-02-18T03:15:58.105Z,6.48
2019-02-18T03:18:44.301Z,6.50
2019-02-18T03:21:30.575Z,6.50
2019-02-18T03:24:16.533Z,6.28
2019-02-18T03:27:02.804Z,6.22
2019-02-18T03:30:42.565Z,5.99
2019-02-18T03:33:37.807Z,5.92
2019-02-18T03:36:23.993Z,5.80
2019-02-18T03:39:10.306Z,5.78
2019-02-18T03:41:56.881Z,5.77
2019-02-18T03:44:45.674Z,5.67
2019-02-18T03:47:32.038Z,5.59
2019-02-18T03:50:18.205Z,5.60
2019-02-18T03:53:04.318Z,5.60
2019-02-18T03:55:50.430Z,5.77
2019-02-18T03:58:37.158Z,5.77
2019-02-18T04:01:23.442Z,5.59
2019-02-18T04:04:09.930Z,5.54
2019-02-18T04:06:56.453Z,5.34
2019-02-18T04:09:42.502Z,5.56
2019-02-18T04:12:28.395Z,5.46
2019-02-18T04:15:14.707Z,5.54
2019-02-18T04:18:00.839Z,5.50
2019-02-18T04:20:49.475Z,5.34
2019-02-18T04:23:35.784Z,5.43
2019-02-18T04:26:22.141Z,5.43
2019-02-18T04:29:08.374Z,5.44
2019-02-18T04:31:54.530Z,5.44
2019-02-18T04:34:40.920Z,5.12
2019-02-18T04:37:26.957Z,5.18
2019-02-18T04:40:13.369Z,5.18
2019-02-18T04:42:59.373Z,5.40
2019-02-18T04:45:45.290Z,5.47
2019-02-18T04:48:31.611Z,5.62
2019-02-18T04:51:17.724Z,5.77
2019-02-18T04:54:03.890Z,5.88
2019-02-18T04:56:50.549Z,5.87
2019-02-18T04:59:36.590Z,5.72
2019-02-18T05:02:22.471Z,5.82
2019-02-18T05:05:08.565Z,5.73
2019-02-18T05:07:54.306Z,5.61
2019-02-18T05:10:40.622Z,5.36
2019-02-18T05:13:26.713Z,5.48
2019-02-18T05:16:12.816Z,5.48
2019-02-18T05:18:58.794Z,5.26
2019-02-18T05:21:45.490Z,5.16
2019-02-18T05:24:31.383Z,5.00
2019-02-18T05:27:17.628Z,5.00
2019-02-18T05:30:04.907Z,5.19
2019-02-18T05:32:50.750Z,5.33
2019-02-18T05:35:36.746Z,5.27
2019-02-18T05:38:23.087Z,5.33
2019-02-18T05:41:09.326Z,5.30
2019-02-18T05:43:55.452Z,5.30
2019-02-18T05:46:41.571Z,5.50
2019-02-18T05:49:27.551Z,5.44
2019-02-18T05:52:13.560Z,5.16
2019-02-18T05:54:59.846Z,4.97
2019-02-18T05:57:45.902Z,4.97
2019-02-18T06:00:32.555Z,4.87
2019-02-18T06:03:18.873Z,4.87
2019-02-18T06:06:05.171Z,5.48
2019-02-18T06:08:51.410Z,5.48
2019-02-18T06:11:37.834Z,5.28
2019-02-18T06:14:23.653Z,5.46
2019-02-18T06:17:09.818Z,5.29
2019-02-18T06:19:56.523Z,5.29
2019-02-18T06:22:42.698Z,4.96
2019-02-18T06:25:28.882Z,4.91
2019-02-18T06:28:15.290Z,4.81
2019-02-18T06:31:01.600Z,4.91
2019-02-18T06:33:47.989Z,4.77
2019-02-18T06:36:34.351Z,4.78
2019-02-18T06:39:20.280Z,4.78
2019-02-18T06:42:06.580Z,5.40
2019-02-18T06:45:22.643Z,5.34
2019-02-18T06:48:34.138Z,5.34
2019-02-18T06:51:20.245Z,5.16
2019-02-18T06:54:06.310Z,5.16
2019-02-18T06:57:01.630Z,5.04
2019-02-18T06:59:50.857Z,5.19
2019-02-18T07:02:57.630Z,5.60
2019-02-18T07:05:54.965Z,5.60
2019-02-18T07:08:46.793Z,5.39
2019-02-18T07:11:55.895Z,5.59
2019-02-18T07:14:41.714Z,5.59
2019-02-18T07:17:28.046Z,5.66
2019-02-18T07:20:14.318Z,5.53
2019-02-18T07:23:00.480Z,5.73
2019-02-18T07:25:46.910Z,5.76
2019-02-18T07:28:32.862Z,5.85
2019-02-18T07:31:20.554Z,5.78
2019-02-18T07:34:06.903Z,5.97
2019-02-18T07:36:52.799Z,6.06
2019-02-18T07:39:39.038Z,6.22
2019-02-18T07:42:25.683Z,6.31
2019-02-18T07:45:11.738Z,6.59
2019-02-18T07:48:04.023Z,6.91
2019-02-18T07:50:50.191Z,7.62
2019-02-18T07:53:39.177Z,8.64
2019-02-18T07:56:27.223Z,9.98
2019-02-18T07:59:15.959Z,9.00
2019-02-18T08:02:02.245Z,9.18
2019-02-18T08:04:49.127Z,10.73
2019-02-18T08:07:35.047Z,11.45
2019-02-18T08:10:21.108Z,11.90
2019-02-18T08:13:07.364Z,12.87
2019-02-18T08:15:53.467Z,12.56
2019-02-18T08:18:41.698Z,13.17
2019-02-18T08:21:28.172Z,12.06
2019-02-18T08:24:14.188Z,12.40
2019-02-18T08:27:00.182Z,12.60
2019-02-18T08:29:46.327Z,12.69
2019-02-18T08:32:32.855Z,12.89
2019-02-18T08:35:18.979Z,12.74
2019-02-18T08:38:07.135Z,13.21
2019-02-18T08:40:53.110Z,13.49
2019-02-18T08:43:39.179Z,14.09
2019-02-18T08:46:25.419Z,14.00
2019-02-18T08:49:11.758Z,14.08
2019-02-18T08:51:58.510Z,14.48
2019-02-18T08:54:44.744Z,15.97
2019-02-18T08:57:30.693Z,15.68
2019-02-18T09:00:16.771Z,17.23
2019-02-18T09:03:05.772Z,15.91
2019-02-18T09:05:52.095Z,15.94
2019-02-18T09:08:41.020Z,15.38
2019-02-18T09:11:27.336Z,16.15
2019-02-18T09:14:15.835Z,15.63
2019-02-18T09:17:02.052Z,16.09
2019-02-18T09:19:48.271Z,16.14
2019-02-18T09:22:54.158Z,16.31
2019-02-18T09:25:51.640Z,15.94
2019-02-18T09:28:37.905Z,15.50
2019-02-18T09:31:27.864Z,14.66
2019-02-18T09:34:14.183Z,14.48
2019-02-18T09:37:00.263Z,14.69
2019-02-18T09:39:48.013Z,14.34
2019-02-18T09:42:37.283Z,14.63
2019-02-18T09:45:26.229Z,14.18
2019-02-18T09:48:12.569Z,14.41
2019-02-18T09:51:00.118Z,15.00
2019-02-18T09:53:46.305Z,16.12
2019-02-18T09:56:33.045Z,16.54
2019-02-18T09:59:19.086Z,16.52
2019-02-18T10:02:07.955Z,16.40
2019-02-18T10:04:56.510Z,16.39
2019-02-18T10:07:44.139Z,16.83
2019-02-18T10:10:32.791Z,17.21
2019-02-18T10:13:19.428Z,16.77
2019-02-18T10:16:05.597Z,17.70
2019-02-18T10:18:51.483Z,18.41
2019-02-18T10:21:37.759Z,18.59
2019-02-18T10:24:24.325Z,19.59
2019-02-18T10:27:10.302Z,19.76
2019-02-18T10:29:56.669Z,19.84
2019-02-18T10:32:42.744Z,18.96
2019-02-18T10:35:28.505Z,18.47
2019-02-18T10:38:14.709Z,17.59
2019-02-18T10:41:06.937Z,18.20
2019-02-18T10:43:54.810Z,17.64
2019-02-18T10:46:41.292Z,17.61
2019-02-18T10:49:27.243Z,17.45
2019-02-18T10:52:16.042Z,17.31
2019-02-18T10:55:02.469Z,17.57
2019-02-18T10:57:48.630Z,17.73
2019-02-18T11:00:34.894Z,17.53
2019-02-18T11:03:20.939Z,18.53
2019-02-18T11:06:09.251Z,17.76
2019-02-18T11:08:55.476Z,17.62
2019-02-18T11:11:41.310Z,18.67
2019-02-18T11:14:29.326Z,17.74
2019-02-18T11:17:15.754Z,17.75
2019-02-18T11:20:02.200Z,17.73
2019-02-18T11:22:50.952Z,17.46
2019-02-18T11:25:37.685Z,18.61
2019-02-18T11:28:23.565Z,18.60
2019-02-18T11:31:09.557Z,18.80
2019-02-18T11:33:56.359Z,18.38
2019-02-18T11:36:43.342Z,18.62
2019-02-18T11:39:29.422Z,18.69
2019-02-18T11:42:15.691Z,18.78
2019-02-18T11:45:01.686Z,18.31
2019-02-18T11:47:48.192Z,17.70
2019-02-18T11:50:34.263Z,19.98
2019-02-18T11:53:22.989Z,18.71
2019-02-18T11:56:11.374Z,19.02
2019-02-18T11:58:57.747Z,18.79
2019-02-18T12:01:43.814Z,18.30
2019-02-18T12:04:29.572Z,18.81
2019-02-18T12:07:15.695Z,19.09
2019-02-18T12:10:03.991Z,19.03
2019-02-18T12:12:49.956Z,18.79
2019-02-18T12:15:36.164Z,18.36
2019-02-18T12:18:22.155Z,17.95
2019-02-18T12:21:08.405Z,17.95
2019-02-18T12:23:56.557Z,18.88
2019-02-18T12:26:42.845Z,19.17
2019-02-18T12:29:28.875Z,19.60
2019-02-18T12:32:15.115Z,19.35
2019-02-18T12:35:03.519Z,18.73
2019-02-18T12:37:55.372Z,18.87
2019-02-18T12:40:37.659Z,18.47
2019-02-18T12:43:23.575Z,19.29
2019-02-18T12:46:15.874Z,19.66
2019-02-18T12:48:57.616Z,19.54
2019-02-18T12:51:46.481Z,19.52
2019-02-18T12:54:32.345Z,19.17
2019-02-18T12:57:18.319Z,20.59
2019-02-18T13:00:08.424Z,20.08
2019-02-18T13:02:54.366Z,21.84
2019-02-18T13:05:40.332Z,20.39
2019-02-18T13:08:26.473Z,20.99
2019-02-18T13:11:13.667Z,19.55
2019-02-18T13:13:59.934Z,19.59
2019-02-18T13:16:46.139Z,19.80
2019-02-18T13:19:35.115Z,19.66
2019-02-18T13:22:24.427Z,20.03
2019-02-18T13:25:12.781Z,19.74
2019-02-18T13:27:58.995Z,19.96
2019-02-18T13:30:44.926Z,19.88
2019-02-18T13:33:31.184Z,20.05
2019-02-18T13:36:17.346Z,19.61
2019-02-18T13:39:07.170Z,19.58
2019-02-18T13:41:53.531Z,19.96
2019-02-18T13:44:40.131Z,19.94
2019-02-18T13:47:26.058Z,18.97
2019-02-18T13:50:18.412Z,20.20
2019-02-18T13:53:04.888Z,20.04
2019-02-18T13:55:50.776Z,20.28
2019-02-18T13:58:36.954Z,21.56
2019-02-18T14:01:23.111Z,20.56
2019-02-18T14:04:09.206Z,21.13
2019-02-18T14:06:55.579Z,20.70
2019-02-18T14:09:41.864Z,20.32
2019-02-18T14:12:30.819Z,19.95
2019-02-18T14:15:17.626Z,19.87
2019-02-18T14:18:07.500Z,19.75
2019-02-18T14:20:54.087Z,20.59
2019-02-18T14:23:42.188Z,20.64
2019-02-18T14:26:29.811Z,21.85
2019-02-18T14:29:17.896Z,20.33
2019-02-18T14:32:04.319Z,21.02
2019-02-18T14:34:50.728Z,21.09
2019-02-18T14:37:39.405Z,20.92
2019-02-18T14:40:27.091Z,20.30
2019-02-18T14:43:17.822Z,20.94
2019-02-18T14:46:04.604Z,20.53
2019-02-18T14:48:50.860Z,20.69
2019-02-18T14:51:36.920Z,19.92
2019-02-18T14:54:23.488Z,19.99
2019-02-18T14:57:13.627Z,20.96
2019-02-18T14:59:59.991Z,19.89
2019-02-18T15:02:46.603Z,19.19
2019-02-18T15:05:33.002Z,19.51
2019-02-18T15:08:18.988Z,19.22
2019-02-18T15:11:05.504Z,19.74
2019-02-18T15:13:52.230Z,18.78
2019-02-18T15:16:38.165Z,18.77
2019-02-18T15:19:30.303Z,18.73
2019-02-18T15:22:16.500Z,18.15
2019-02-18T15:25:02.877Z,18.20
2019-02-18T15:27:49.228Z,17.89
2019-02-18T15:30:35.638Z,17.88
2019-02-18T15:33:24.575Z,17.88
2019-02-18T15:36:13.220Z,17.82
2019-02-18T15:39:03.772Z,17.86
2019-02-18T15:41:49.864Z,17.74
2019-02-18T15:44:35.960Z,17.79
2019-02-18T15:47:23.023Z,17.68
2019-02-18T15:50:09.449Z,17.62
2019-02-18T15:52:55.724Z,17.58
2019-02-18T15:55:44.636Z,17.42
2019-02-18T15:58:31.312Z,17.39
2019-02-18T16:01:17.346Z,17.33
2019-02-18T16:04:04.193Z,17.28
2019-02-18T16:06:51.417Z,17.12
2019-02-18T16:09:37.626Z,17.01
2019-02-18T16:12:23.456Z,16.92
2019-02-18T16:15:11.771Z,16.94
2019-02-18T16:18:00.608Z,16.91
2019-02-18T16:20:46.481Z,16.63
2019-02-18T16:23:32.404Z,16.34
2019-02-18T16:26:18.727Z,16.24
2019-02-18T16:29:06.624Z,16.20
2019-02-18T16:31:53.162Z,15.74
2019-02-18T16:34:39.401Z,15.54
2019-02-18T16:37:25.979Z,15.21
2019-02-18T16:40:13.938Z,14.99
2019-02-18T16:43:00.295Z,14.70
2019-02-18T16:45:46.267Z,14.79
2019-02-18T16:48:33.035Z,14.85
2019-02-18T16:51:22.373Z,14.73
2019-02-18T16:54:12.134Z,14.57
2019-02-18T16:56:59.649Z,14.07
2019-02-18T16:59:50.224Z,13.73
2019-02-18T17:02:36.848Z,13.45
2019-02-18T17:05:27.095Z,13.29
2019-02-18T17:08:13.352Z,13.32
2019-02-18T17:11:04.428Z,12.99
2019-02-18T17:13:50.268Z,12.72
2019-02-18T17:16:37.791Z,13.17
2019-02-18T17:19:23.611Z,13.43
2019-02-18T17:22:09.514Z,14.11
2019-02-18T17:24:58.676Z,14.57
2019-02-18T17:27:44.840Z,14.37
2019-02-18T17:30:31.011Z,14.35
2019-02-18T17:33:19.217Z,14.30
2019-02-18T17:36:05.676Z,14.32
2019-02-18T17:38:51.636Z,14.21
2019-02-18T17:41:37.889Z,14.10
2019-02-18T17:44:24.118Z,14.01
2019-02-18T17:47:10.049Z,13.93
2019-02-18T17:49:56.865Z,13.88
2019-02-18T17:52:45.789Z,13.95
2019-02-18T17:55:31.876Z,13.87
2019-02-18T17:58:18.127Z,13.84
2019-02-18T18:01:05.450Z,13.85
2019-02-18T18:03:51.786Z,13.83
2019-02-18T18:06:41.318Z,13.68
2019-02-18T18:09:27.678Z,13.63
2019-02-18T18:12:13.520Z,13.61
2019-02-18T18:14:59.843Z,13.57
2019-02-18T18:17:47.567Z,13.49
2019-02-18T18:20:33.468Z,13.40
2019-02-18T18:23:21.908Z,13.36
2019-02-18T18:26:07.855Z,13.18
2019-02-18T18:28:53.823Z,13.04
2019-02-18T18:31:39.983Z,13.01
2019-02-18T18:34:26.165Z,12.85
2019-02-18T18:37:12.249Z,12.76
2019-02-18T18:39:58.601Z,12.57
2019-02-18T18:42:46.528Z,12.49
2019-02-18T18:45:32.721Z,12.57
2019-02-18T18:48:18.848Z,12.62
2019-02-18T18:51:06.465Z,12.51
2019-02-18T18:53:52.273Z,12.62
2019-02-18T18:56:38.605Z,12.61
2019-02-18T18:59:26.043Z,12.64
2019-02-18T19:02:12.582Z,12.46
2019-02-18T19:04:58.875Z,12.40
2019-02-18T19:07:46.744Z,12.34
2019-02-18T19:10:35.891Z,12.26
2019-02-18T19:13:22.152Z,12.26
2019-02-18T19:16:08.474Z,12.29
2019-02-18T19:18:55.680Z,12.26
2019-02-18T19:21:42.487Z,12.07
2019-02-18T19:24:29.994Z,12.04
2019-02-18T19:27:18.961Z,12.07
2019-02-18T19:30:06.797Z,11.94
2019-02-18T19:32:53.091Z,11.89
2019-02-18T19:35:39.324Z,11.82
2019-02-18T19:38:28.596Z,11.83
2019-02-18T19:41:20.845Z,11.72
2019-02-18T19:44:06.709Z,11.74
2019-02-18T19:46:58.550Z,11.67
2019-02-18T19:49:45.012Z,11.63
2019-02-18T19:52:31.474Z,11.63
2019-02-18T19:55:22.552Z,11.62
2019-02-18T19:58:11.193Z,11.61
2019-02-18T20:00:59.502Z,11.61
2019-02-18T20:03:46.021Z,11.47
2019-02-18T20:06:32.174Z,11.32
2019-02-18T20:09:18.571Z,11.29
2019-02-18T20:12:08.278Z,11.31
2019-02-18T20:14:54.807Z,11.26
2019-02-18T20:17:40.889Z,11.11
2019-02-18T20:20:27.480Z,11.03
2019-02-18T20:23:13.882Z,10.95
2019-02-18T20:26:05.063Z,10.90
2019-02-18T20:28:57.377Z,10.85
2019-02-18T20:31:43.847Z,10.76
2019-02-18T20:34:30.093Z,10.73
2019-02-18T20:37:18.442Z,10.68
2019-02-18T20:40:04.752Z,10.76
2019-02-18T20:42:51.156Z,10.61
2019-02-18T20:45:37.508Z,10.60
2019-02-18T20:48:24.536Z,10.63
2019-02-18T20:51:14.245Z,10.56
2019-02-18T20:54:02.884Z,10.72
2019-02-18T20:56:51.883Z,10.51
2019-02-18T20:59:38.416Z,10.47
2019-02-18T21:02:27.180Z,10.47
2019-02-18T21:05:18.698Z,10.44
2019-02-18T21:08:07.758Z,10.26
2019-02-18T21:10:54.992Z,10.24
2019-02-18T21:13:40.951Z,10.30
2019-02-18T21:16:31.826Z,10.15
2019-02-18T21:19:18.283Z,10.13
2019-02-18T21:22:08.461Z,10.19
2019-02-18T21:24:54.802Z,10.14
2019-02-18T21:27:43.429Z,10.16
2019-02-18T21:30:29.663Z,10.16
2019-02-18T21:33:17.126Z,10.14
2019-02-18T21:36:03.066Z,10.12
2019-02-18T21:38:49.278Z,10.14
2019-02-18T21:41:35.429Z,9.96
2019-02-18T21:44:25.281Z,10.08
2019-02-18T21:47:09.383Z,10.06
2019-02-18T21:49:55.591Z,10.05
2019-02-18T21:52:43.412Z,9.95
2019-02-18T21:55:31.857Z,10.06
2019-02-18T21:58:18.052Z,9.97
2019-02-18T22:01:03.937Z,9.92
2019-02-18T22:03:49.853Z,9.99
2019-02-18T22:06:36.038Z,9.97
2019-02-18T22:09:22.326Z,10.08
2019-02-18T22:12:08.338Z,9.94
2019-02-18T22:14:54.592Z,9.96
2019-02-18T22:17:40.988Z,9.96
2019-02-18T22:20:26.769Z,9.95
2019-02-18T22:23:14.143Z,9.97
2019-02-18T22:26:01.616Z,9.85
2019-02-18T22:28:48.300Z,9.74
2019-02-18T22:31:34.456Z,9.85
2019-02-18T22:34:22.949Z,9.89
2019-02-18T22:37:09.204Z,9.80
2019-02-18T22:39:55.376Z,9.76
2019-02-18T22:42:41.436Z,9.73
2019-02-18T22:45:27.510Z,9.66
2019-02-18T22:48:14.092Z,9.66
2019-02-18T22:51:06.197Z,9.66
2019-02-18T22:53:52.518Z,9.58
2019-02-18T22:56:38.767Z,9.59
2019-02-18T22:59:29.924Z,9.59
2019-02-18T23:02:18.192Z,9.62
2019-02-18T23:05:04.756Z,9.66
2019-02-18T23:07:51.074Z,9.61
2019-02-18T23:10:36.936Z,9.60
2019-02-18T23:13:23.198Z,9.54
2019-02-18T23:16:09.324Z,9.51
2019-02-18T23:18:55.617Z,9.35
2019-02-18T23:21:42.641Z,9.37
2019-02-18T23:24:29.565Z,9.38
2019-02-18T23:27:15.378Z,9.35
2019-02-18T23:30:01.641Z,9.38
2019-02-18T23:32:48.080Z,9.33
2019-02-18T23:35:34.312Z,9.36
2019-02-18T23:38:20.716Z,9.39
2019-02-18T23:41:06.933Z,9.37
2019-02-18T23:43:52.736Z,9.47
2019-02-18T23:46:40.336Z,9.46
2019-02-18T23:49:26.353Z,9.48
2019-02-18T23:52:15.542Z,9.48
2019-02-18T23:55:01.973Z,9.66
2019-02-18T23:57:48.249Z,9.44
